sensor_id;sensor_type;location;lat;lon;timestamp;P1;durP1;ratioP1;P2;durP2;ratioP2
12363;SDS011;6246;50.826;4.712;2023-08-17T00:00:27;2.83;;;1.70;;
12363;SDS011;6246;50.826;4.712;2023-08-17T00:02:53;2.67;;;1.83;;
12363;SDS011;6246;50.826;4.712;2023-08-17T00:05:19;1.92;;;1.80;;
12363;SDS011;6246;50.826;4.712;2023-08-17T00:07:45;2.30;;;1.77;;
12363;SDS011;6246;50.826;4.712;2023-08-17T00:10:11;3.38;;;1.80;;
12363;SDS011;6246;50.826;4.712;2023-08-17T00:12:37;1.50;;;1.40;;
12363;SDS011;6246;50.826;4.712;2023-08-17T00:15:03;2.22;;;2.03;;
12363;SDS011;6246;50.826;4.712;2023-08-17T00:17:30;2.00;;;1.80;;
12363;SDS011;6246;50.826;4.712;2023-08-17T00:19:55;3.70;;;2.17;;
12363;SDS011;6246;50.826;4.712;2023-08-17T00:22:22;2.28;;;1.73;;
12363;SDS011;6246;50.826;4.712;2023-08-17T00:24:48;1.67;;;1.58;;
12363;SDS011;6246;50.826;4.712;2023-08-17T00:27:14;2.20;;;1.60;;
12363;SDS011;6246;50.826;4.712;2023-08-17T00:29:39;2.30;;;2.05;;
12363;SDS011;6246;50.826;4.712;2023-08-17T00:32:06;2.00;;;1.80;;
12363;SDS011;6246;50.826;4.712;2023-08-17T00:34:32;1.90;;;1.63;;
12363;SDS011;6246;50.826;4.712;2023-08-17T00:36:59;1.80;;;1.58;;
12363;SDS011;6246;50.826;4.712;2023-08-17T00:39:25;2.00;;;1.90;;
12363;SDS011;6246;50.826;4.712;2023-08-17T00:41:51;1.92;;;1.55;;
12363;SDS011;6246;50.826;4.712;2023-08-17T00:44:17;2.25;;;1.50;;
12363;SDS011;6246;50.826;4.712;2023-08-17T00:46:43;1.60;;;1.50;;
12363;SDS011;6246;50.826;4.712;2023-08-17T00:49:09;1.90;;;1.80;;
12363;SDS011;6246;50.826;4.712;2023-08-17T00:51:36;2.70;;;2.03;;
12363;SDS011;6246;50.826;4.712;2023-08-17T00:54:02;2.42;;;1.77;;
12363;SDS011;6246;50.826;4.712;2023-08-17T00:56:28;1.60;;;1.50;;
12363;SDS011;6246;50.826;4.712;2023-08-17T00:58:55;1.60;;;1.50;;
12363;SDS011;6246;50.826;4.712;2023-08-17T01:01:21;1.75;;;1.48;;
12363;SDS011;6246;50.826;4.712;2023-08-17T01:03:47;2.22;;;1.20;;
12363;SDS011;6246;50.826;4.712;2023-08-17T01:06:13;1.65;;;1.45;;
12363;SDS011;6246;50.826;4.712;2023-08-17T01:08:39;2.08;;;1.98;;
12363;SDS011;6246;50.826;4.712;2023-08-17T01:13:44;1.60;;;1.50;;
12363;SDS011;6246;50.826;4.712;2023-08-17T01:16:14;1.40;;;1.30;;
12363;SDS011;6246;50.826;4.712;2023-08-17T01:18:41;1.73;;;1.63;;
12363;SDS011;6246;50.826;4.712;2023-08-17T01:21:08;1.70;;;1.60;;
12363;SDS011;6246;50.826;4.712;2023-08-17T01:23:35;1.77;;;1.67;;
12363;SDS011;6246;50.826;4.712;2023-08-17T01:26:01;1.55;;;1.45;;
12363;SDS011;6246;50.826;4.712;2023-08-17T01:28:28;1.63;;;1.52;;
12363;SDS011;6246;50.826;4.712;2023-08-17T01:33:20;1.50;;;1.40;;
12363;SDS011;6246;50.826;4.712;2023-08-17T01:35:52;2.03;;;1.85;;
12363;SDS011;6246;50.826;4.712;2023-08-17T01:38:21;1.48;;;1.38;;
12363;SDS011;6246;50.826;4.712;2023-08-17T01:40:48;1.33;;;1.33;;
12363;SDS011;6246;50.826;4.712;2023-08-17T01:43:14;1.65;;;1.52;;
12363;SDS011;6246;50.826;4.712;2023-08-17T01:45:41;1.23;;;1.20;;
12363;SDS011;6246;50.826;4.712;2023-08-17T01:48:07;1.30;;;1.20;;
12363;SDS011;6246;50.826;4.712;2023-08-17T01:50:33;1.60;;;1.50;;
12363;SDS011;6246;50.826;4.712;2023-08-17T01:52:59;2.85;;;1.73;;
12363;SDS011;6246;50.826;4.712;2023-08-17T01:55:25;1.50;;;1.40;;
12363;SDS011;6246;50.826;4.712;2023-08-17T01:57:52;2.05;;;1.75;;
12363;SDS011;6246;50.826;4.712;2023-08-17T02:00:18;1.35;;;1.25;;
12363;SDS011;6246;50.826;4.712;2023-08-17T02:02:44;1.98;;;1.80;;
12363;SDS011;6246;50.826;4.712;2023-08-17T02:05:10;1.50;;;1.40;;
12363;SDS011;6246;50.826;4.712;2023-08-17T02:07:36;1.60;;;1.50;;
12363;SDS011;6246;50.826;4.712;2023-08-17T02:10:02;1.45;;;1.35;;
12363;SDS011;6246;50.826;4.712;2023-08-17T02:12:28;1.67;;;1.40;;
12363;SDS011;6246;50.826;4.712;2023-08-17T02:14:54;2.25;;;1.30;;
12363;SDS011;6246;50.826;4.712;2023-08-17T02:17:20;1.23;;;1.23;;
12363;SDS011;6246;50.826;4.712;2023-08-17T02:19:47;1.48;;;1.38;;
12363;SDS011;6246;50.826;4.712;2023-08-17T02:22:13;1.50;;;1.30;;
12363;SDS011;6246;50.826;4.712;2023-08-17T02:24:40;1.65;;;1.55;;
12363;SDS011;6246;50.826;4.712;2023-08-17T02:27:06;1.30;;;1.27;;
12363;SDS011;6246;50.826;4.712;2023-08-17T02:29:32;1.38;;;1.30;;
12363;SDS011;6246;50.826;4.712;2023-08-17T02:31:58;1.73;;;1.60;;
12363;SDS011;6246;50.826;4.712;2023-08-17T02:34:24;1.50;;;1.40;;
12363;SDS011;6246;50.826;4.712;2023-08-17T02:36:50;1.55;;;1.45;;
12363;SDS011;6246;50.826;4.712;2023-08-17T02:39:16;2.05;;;1.67;;
12363;SDS011;6246;50.826;4.712;2023-08-17T02:41:42;1.20;;;1.20;;
12363;SDS011;6246;50.826;4.712;2023-08-17T02:44:09;1.52;;;1.42;;
12363;SDS011;6246;50.826;4.712;2023-08-17T02:46:35;2.33;;;1.67;;
12363;SDS011;6246;50.826;4.712;2023-08-17T02:49:01;1.40;;;1.30;;
12363;SDS011;6246;50.826;4.712;2023-08-17T02:51:27;1.20;;;1.20;;
12363;SDS011;6246;50.826;4.712;2023-08-17T02:53:53;1.30;;;1.25;;
12363;SDS011;6246;50.826;4.712;2023-08-17T02:56:19;1.58;;;1.48;;
12363;SDS011;6246;50.826;4.712;2023-08-17T02:58:45;1.30;;;1.20;;
12363;SDS011;6246;50.826;4.712;2023-08-17T03:01:11;1.20;;;1.10;;
12363;SDS011;6246;50.826;4.712;2023-08-17T03:03:37;1.27;;;1.25;;
12363;SDS011;6246;50.826;4.712;2023-08-17T03:06:04;1.15;;;1.15;;
12363;SDS011;6246;50.826;4.712;2023-08-17T03:08:30;1.20;;;1.10;;
12363;SDS011;6246;50.826;4.712;2023-08-17T03:10:56;1.20;;;1.17;;
12363;SDS011;6246;50.826;4.712;2023-08-17T03:13:22;1.83;;;1.73;;
12363;SDS011;6246;50.826;4.712;2023-08-17T03:15:48;1.38;;;1.27;;
12363;SDS011;6246;50.826;4.712;2023-08-17T03:18:15;1.40;;;1.30;;
12363;SDS011;6246;50.826;4.712;2023-08-17T03:20:41;1.67;;;1.58;;
12363;SDS011;6246;50.826;4.712;2023-08-17T03:23:07;1.88;;;1.50;;
12363;SDS011;6246;50.826;4.712;2023-08-17T03:25:33;1.33;;;1.23;;
12363;SDS011;6246;50.826;4.712;2023-08-17T03:27:59;1.00;;;1.00;;
12363;SDS011;6246;50.826;4.712;2023-08-17T03:30:26;1.45;;;1.23;;
12363;SDS011;6246;50.826;4.712;2023-08-17T03:32:52;2.20;;;1.20;;
12363;SDS011;6246;50.826;4.712;2023-08-17T03:35:18;1.70;;;1.40;;
12363;SDS011;6246;50.826;4.712;2023-08-17T03:37:44;1.38;;;1.27;;
12363;SDS011;6246;50.826;4.712;2023-08-17T03:40:10;1.33;;;1.23;;
12363;SDS011;6246;50.826;4.712;2023-08-17T03:42:36;1.55;;;1.40;;
12363;SDS011;6246;50.826;4.712;2023-08-17T03:45:03;1.38;;;1.27;;
12363;SDS011;6246;50.826;4.712;2023-08-17T03:47:29;1.23;;;1.15;;
12363;SDS011;6246;50.826;4.712;2023-08-17T03:49:55;1.15;;;1.05;;
12363;SDS011;6246;50.826;4.712;2023-08-17T03:52:21;1.40;;;1.30;;
12363;SDS011;6246;50.826;4.712;2023-08-17T03:54:47;1.75;;;1.33;;
12363;SDS011;6246;50.826;4.712;2023-08-17T03:57:13;1.83;;;1.20;;
12363;SDS011;6246;50.826;4.712;2023-08-17T03:59:39;1.58;;;1.48;;
12363;SDS011;6246;50.826;4.712;2023-08-17T04:02:05;0.90;;;0.90;;
12363;SDS011;6246;50.826;4.712;2023-08-17T04:04:31;1.10;;;1.10;;
12363;SDS011;6246;50.826;4.712;2023-08-17T04:06:57;1.30;;;1.20;;
12363;SDS011;6246;50.826;4.712;2023-08-17T04:09:23;0.90;;;0.90;;
12363;SDS011;6246;50.826;4.712;2023-08-17T04:11:49;3.25;;;1.52;;
12363;SDS011;6246;50.826;4.712;2023-08-17T04:14:15;1.05;;;1.05;;
12363;SDS011;6246;50.826;4.712;2023-08-17T04:16:41;0.95;;;0.95;;
12363;SDS011;6246;50.826;4.712;2023-08-17T04:19:07;0.90;;;0.90;;
12363;SDS011;6246;50.826;4.712;2023-08-17T04:21:33;1.10;;;1.05;;
12363;SDS011;6246;50.826;4.712;2023-08-17T04:23:59;1.10;;;1.10;;
12363;SDS011;6246;50.826;4.712;2023-08-17T04:26:25;1.42;;;1.33;;
12363;SDS011;6246;50.826;4.712;2023-08-17T04:28:51;1.20;;;1.08;;
12363;SDS011;6246;50.826;4.712;2023-08-17T04:31:17;1.02;;;1.02;;
12363;SDS011;6246;50.826;4.712;2023-08-17T04:33:43;1.50;;;1.20;;
12363;SDS011;6246;50.826;4.712;2023-08-17T04:36:09;1.48;;;1.38;;
12363;SDS011;6246;50.826;4.712;2023-08-17T04:38:35;2.53;;;1.27;;
12363;SDS011;6246;50.826;4.712;2023-08-17T04:41:01;1.20;;;1.10;;
12363;SDS011;6246;50.826;4.712;2023-08-17T04:43:28;1.13;;;1.13;;
12363;SDS011;6246;50.826;4.712;2023-08-17T04:45:54;1.50;;;1.10;;
12363;SDS011;6246;50.826;4.712;2023-08-17T04:48:20;1.10;;;1.00;;
12363;SDS011;6246;50.826;4.712;2023-08-17T04:50:46;1.67;;;1.52;;
12363;SDS011;6246;50.826;4.712;2023-08-17T04:53:12;1.38;;;1.23;;
12363;SDS011;6246;50.826;4.712;2023-08-17T04:55:38;1.30;;;1.05;;
12363;SDS011;6246;50.826;4.712;2023-08-17T04:58:04;1.40;;;1.05;;
12363;SDS011;6246;50.826;4.712;2023-08-17T05:00:30;1.20;;;1.10;;
12363;SDS011;6246;50.826;4.712;2023-08-17T05:02:56;2.13;;;1.33;;
12363;SDS011;6246;50.826;4.712;2023-08-17T05:05:22;1.10;;;1.10;;
12363;SDS011;6246;50.826;4.712;2023-08-17T05:07:48;2.40;;;1.27;;
12363;SDS011;6246;50.826;4.712;2023-08-17T05:10:14;1.85;;;1.00;;
12363;SDS011;6246;50.826;4.712;2023-08-17T05:12:40;1.48;;;1.38;;
12363;SDS011;6246;50.826;4.712;2023-08-17T05:15:06;0.82;;;0.80;;
12363;SDS011;6246;50.826;4.712;2023-08-17T05:17:32;1.63;;;1.08;;
12363;SDS011;6246;50.826;4.712;2023-08-17T05:19:58;0.80;;;0.80;;
12363;SDS011;6246;50.826;4.712;2023-08-17T05:22:25;1.17;;;1.10;;
12363;SDS011;6246;50.826;4.712;2023-08-17T05:24:50;1.20;;;1.10;;
12363;SDS011;6246;50.826;4.712;2023-08-17T05:27:17;1.20;;;1.10;;
12363;SDS011;6246;50.826;4.712;2023-08-17T05:29:42;1.35;;;1.25;;
12363;SDS011;6246;50.826;4.712;2023-08-17T05:32:08;1.33;;;1.20;;
12363;SDS011;6246;50.826;4.712;2023-08-17T05:34:34;3.47;;;1.20;;
12363;SDS011;6246;50.826;4.712;2023-08-17T05:37:00;1.20;;;1.10;;
12363;SDS011;6246;50.826;4.712;2023-08-17T05:39:28;0.88;;;0.88;;
12363;SDS011;6246;50.826;4.712;2023-08-17T05:41:54;1.38;;;1.27;;
12363;SDS011;6246;50.826;4.712;2023-08-17T05:44:20;1.90;;;0.95;;
12363;SDS011;6246;50.826;4.712;2023-08-17T05:46:46;1.27;;;1.17;;
12363;SDS011;6246;50.826;4.712;2023-08-17T05:49:13;0.85;;;0.85;;
12363;SDS011;6246;50.826;4.712;2023-08-17T05:51:39;1.08;;;1.08;;
12363;SDS011;6246;50.826;4.712;2023-08-17T05:54:05;1.42;;;1.33;;
12363;SDS011;6246;50.826;4.712;2023-08-17T05:56:32;0.80;;;0.80;;
12363;SDS011;6246;50.826;4.712;2023-08-17T05:58:58;1.17;;;1.00;;
12363;SDS011;6246;50.826;4.712;2023-08-17T06:01:24;2.90;;;1.20;;
12363;SDS011;6246;50.826;4.712;2023-08-17T06:03:50;1.10;;;1.00;;
12363;SDS011;6246;50.826;4.712;2023-08-17T06:06:17;1.00;;;0.90;;
12363;SDS011;6246;50.826;4.712;2023-08-17T06:08:43;0.93;;;0.90;;
12363;SDS011;6246;50.826;4.712;2023-08-17T06:11:09;1.02;;;1.00;;
12363;SDS011;6246;50.826;4.712;2023-08-17T06:13:35;1.38;;;1.25;;
12363;SDS011;6246;50.826;4.712;2023-08-17T06:16:01;0.98;;;0.90;;
12363;SDS011;6246;50.826;4.712;2023-08-17T06:18:29;0.80;;;0.80;;
12363;SDS011;6246;50.826;4.712;2023-08-17T06:20:55;1.02;;;1.00;;
12363;SDS011;6246;50.826;4.712;2023-08-17T06:23:21;1.42;;;1.23;;
12363;SDS011;6246;50.826;4.712;2023-08-17T06:25:48;1.05;;;1.05;;
12363;SDS011;6246;50.826;4.712;2023-08-17T06:28:14;2.45;;;1.30;;
12363;SDS011;6246;50.826;4.712;2023-08-17T06:30:40;1.23;;;1.20;;
12363;SDS011;6246;50.826;4.712;2023-08-17T06:33:06;1.60;;;1.40;;
12363;SDS011;6246;50.826;4.712;2023-08-17T06:35:32;1.25;;;1.02;;
12363;SDS011;6246;50.826;4.712;2023-08-17T06:37:58;0.90;;;0.90;;
12363;SDS011;6246;50.826;4.712;2023-08-17T06:40:24;1.83;;;0.98;;
12363;SDS011;6246;50.826;4.712;2023-08-17T06:42:50;1.17;;;1.08;;
12363;SDS011;6246;50.826;4.712;2023-08-17T06:45:17;1.30;;;1.20;;
12363;SDS011;6246;50.826;4.712;2023-08-17T06:47:43;1.13;;;1.13;;
12363;SDS011;6246;50.826;4.712;2023-08-17T06:50:10;0.90;;;0.90;;
12363;SDS011;6246;50.826;4.712;2023-08-17T06:52:36;1.40;;;1.27;;
12363;SDS011;6246;50.826;4.712;2023-08-17T06:55:02;1.55;;;1.13;;
12363;SDS011;6246;50.826;4.712;2023-08-17T06:57:28;0.80;;;0.80;;
12363;SDS011;6246;50.826;4.712;2023-08-17T06:59:54;1.42;;;1.17;;
12363;SDS011;6246;50.826;4.712;2023-08-17T07:02:20;1.40;;;1.30;;
12363;SDS011;6246;50.826;4.712;2023-08-17T07:04:46;1.20;;;1.02;;
12363;SDS011;6246;50.826;4.712;2023-08-17T07:07:12;1.08;;;0.95;;
12363;SDS011;6246;50.826;4.712;2023-08-17T07:09:39;1.70;;;1.50;;
12363;SDS011;6246;50.826;4.712;2023-08-17T07:12:05;1.35;;;1.20;;
12363;SDS011;6246;50.826;4.712;2023-08-17T07:14:31;1.00;;;0.90;;
12363;SDS011;6246;50.826;4.712;2023-08-17T07:16:58;1.35;;;1.08;;
12363;SDS011;6246;50.826;4.712;2023-08-17T07:19:24;1.55;;;1.10;;
12363;SDS011;6246;50.826;4.712;2023-08-17T07:21:50;1.77;;;0.93;;
12363;SDS011;6246;50.826;4.712;2023-08-17T07:24:17;0.93;;;0.90;;
12363;SDS011;6246;50.826;4.712;2023-08-17T07:26:43;2.15;;;1.33;;
12363;SDS011;6246;50.826;4.712;2023-08-17T07:29:09;0.80;;;0.80;;
12363;SDS011;6246;50.826;4.712;2023-08-17T07:31:36;1.20;;;1.10;;
12363;SDS011;6246;50.826;4.712;2023-08-17T07:34:03;1.15;;;1.08;;
12363;SDS011;6246;50.826;4.712;2023-08-17T07:36:29;0.90;;;0.90;;
12363;SDS011;6246;50.826;4.712;2023-08-17T07:38:55;1.38;;;1.02;;
12363;SDS011;6246;50.826;4.712;2023-08-17T07:41:21;2.10;;;1.30;;
12363;SDS011;6246;50.826;4.712;2023-08-17T07:43:47;7.45;;;1.45;;
12363;SDS011;6246;50.826;4.712;2023-08-17T07:46:13;1.65;;;1.35;;
12363;SDS011;6246;50.826;4.712;2023-08-17T07:48:39;3.35;;;1.60;;
12363;SDS011;6246;50.826;4.712;2023-08-17T07:51:05;1.98;;;1.30;;
12363;SDS011;6246;50.826;4.712;2023-08-17T07:53:31;1.58;;;1.23;;
12363;SDS011;6246;50.826;4.712;2023-08-17T07:55:57;2.40;;;1.55;;
12363;SDS011;6246;50.826;4.712;2023-08-17T07:58:23;1.65;;;1.55;;
12363;SDS011;6246;50.826;4.712;2023-08-17T08:00:49;2.72;;;1.40;;
12363;SDS011;6246;50.826;4.712;2023-08-17T08:03:15;4.60;;;2.00;;
12363;SDS011;6246;50.826;4.712;2023-08-17T08:05:41;2.53;;;1.52;;
12363;SDS011;6246;50.826;4.712;2023-08-17T08:08:07;2.65;;;1.70;;
12363;SDS011;6246;50.826;4.712;2023-08-17T08:10:33;4.10;;;2.03;;
12363;SDS011;6246;50.826;4.712;2023-08-17T08:12:59;2.42;;;1.58;;
12363;SDS011;6246;50.826;4.712;2023-08-17T08:15:25;5.57;;;1.73;;
12363;SDS011;6246;50.826;4.712;2023-08-17T08:17:51;4.53;;;2.03;;
12363;SDS011;6246;50.826;4.712;2023-08-17T08:20:17;3.20;;;1.63;;
12363;SDS011;6246;50.826;4.712;2023-08-17T08:22:43;6.70;;;1.98;;
12363;SDS011;6246;50.826;4.712;2023-08-17T08:25:09;8.20;;;2.30;;
12363;SDS011;6246;50.826;4.712;2023-08-17T08:27:36;7.45;;;2.42;;
12363;SDS011;6246;50.826;4.712;2023-08-17T08:30:02;2.00;;;1.85;;
12363;SDS011;6246;50.826;4.712;2023-08-17T08:32:28;5.50;;;2.20;;
12363;SDS011;6246;50.826;4.712;2023-08-17T08:34:54;3.90;;;1.95;;
12363;SDS011;6246;50.826;4.712;2023-08-17T08:37:20;5.40;;;2.10;;
12363;SDS011;6246;50.826;4.712;2023-08-17T08:39:49;4.50;;;2.38;;
12363;SDS011;6246;50.826;4.712;2023-08-17T08:42:18;8.73;;;2.63;;
12363;SDS011;6246;50.826;4.712;2023-08-17T08:44:45;5.47;;;2.30;;
12363;SDS011;6246;50.826;4.712;2023-08-17T08:47:11;5.45;;;2.92;;
12363;SDS011;6246;50.826;4.712;2023-08-17T08:49:39;7.15;;;2.65;;
12363;SDS011;6246;50.826;4.712;2023-08-17T08:52:07;4.95;;;2.58;;
12363;SDS011;6246;50.826;4.712;2023-08-17T08:54:34;4.10;;;2.72;;
12363;SDS011;6246;50.826;4.712;2023-08-17T08:57:01;6.53;;;2.53;;
12363;SDS011;6246;50.826;4.712;2023-08-17T08:59:29;5.30;;;3.38;;
12363;SDS011;6246;50.826;4.712;2023-08-17T09:01:57;4.57;;;2.75;;
12363;SDS011;6246;50.826;4.712;2023-08-17T09:04:23;5.03;;;3.03;;
12363;SDS011;6246;50.826;4.712;2023-08-17T09:06:49;6.22;;;3.25;;
12363;SDS011;6246;50.826;4.712;2023-08-17T09:09:16;5.93;;;3.78;;
12363;SDS011;6246;50.826;4.712;2023-08-17T09:11:43;5.30;;;3.10;;
12363;SDS011;6246;50.826;4.712;2023-08-17T09:14:09;5.20;;;3.40;;
12363;SDS011;6246;50.826;4.712;2023-08-17T09:16:36;9.77;;;4.25;;
12363;SDS011;6246;50.826;4.712;2023-08-17T09:19:02;9.00;;;4.40;;
12363;SDS011;6246;50.826;4.712;2023-08-17T09:21:30;9.30;;;4.95;;
12363;SDS011;6246;50.826;4.712;2023-08-17T09:23:57;9.70;;;4.65;;
12363;SDS011;6246;50.826;4.712;2023-08-17T09:26:23;9.30;;;4.43;;
12363;SDS011;6246;50.826;4.712;2023-08-17T09:28:52;13.65;;;4.93;;
12363;SDS011;6246;50.826;4.712;2023-08-17T09:31:23;12.93;;;5.60;;
12363;SDS011;6246;50.826;4.712;2023-08-17T09:33:50;9.50;;;5.43;;
12363;SDS011;6246;50.826;4.712;2023-08-17T09:36:19;10.57;;;4.90;;
12363;SDS011;6246;50.826;4.712;2023-08-17T09:38:47;8.43;;;5.45;;
12363;SDS011;6246;50.826;4.712;2023-08-17T09:41:14;10.70;;;5.22;;
12363;SDS011;6246;50.826;4.712;2023-08-17T09:43:40;8.20;;;4.90;;
12363;SDS011;6246;50.826;4.712;2023-08-17T09:46:06;11.02;;;5.00;;
12363;SDS011;6246;50.826;4.712;2023-08-17T09:48:33;12.45;;;4.75;;
12363;SDS011;6246;50.826;4.712;2023-08-17T09:50:59;9.60;;;5.53;;
12363;SDS011;6246;50.826;4.712;2023-08-17T09:53:26;12.60;;;5.55;;
12363;SDS011;6246;50.826;4.712;2023-08-17T09:55:52;11.98;;;6.25;;
12363;SDS011;6246;50.826;4.712;2023-08-17T09:58:20;11.25;;;6.45;;
12363;SDS011;6246;50.826;4.712;2023-08-17T10:00:49;10.63;;;5.47;;
12363;SDS011;6246;50.826;4.712;2023-08-17T10:03:16;9.13;;;5.68;;
12363;SDS011;6246;50.826;4.712;2023-08-17T10:05:43;10.68;;;5.38;;
12363;SDS011;6246;50.826;4.712;2023-08-17T10:08:12;10.43;;;5.20;;
12363;SDS011;6246;50.826;4.712;2023-08-17T10:10:42;11.73;;;5.20;;
12363;SDS011;6246;50.826;4.712;2023-08-17T10:13:09;7.03;;;4.75;;
12363;SDS011;6246;50.826;4.712;2023-08-17T10:15:55;9.32;;;5.35;;
12363;SDS011;6246;50.826;4.712;2023-08-17T10:21:00;8.52;;;4.88;;
12363;SDS011;6246;50.826;4.712;2023-08-17T10:23:27;7.47;;;4.78;;
12363;SDS011;6246;50.826;4.712;2023-08-17T10:25:54;6.25;;;4.57;;
12363;SDS011;6246;50.826;4.712;2023-08-17T10:28:21;7.15;;;5.07;;
12363;SDS011;6246;50.826;4.712;2023-08-17T10:30:47;8.20;;;4.93;;
12363;SDS011;6246;50.826;4.712;2023-08-17T10:33:14;9.57;;;4.82;;
12363;SDS011;6246;50.826;4.712;2023-08-17T10:35:40;8.25;;;5.43;;
12363;SDS011;6246;50.826;4.712;2023-08-17T10:38:07;7.10;;;4.90;;
12363;SDS011;6246;50.826;4.712;2023-08-17T10:40:37;6.10;;;4.88;;
12363;SDS011;6246;50.826;4.712;2023-08-17T10:43:03;8.65;;;4.97;;
12363;SDS011;6246;50.826;4.712;2023-08-17T10:45:30;5.35;;;4.82;;
12363;SDS011;6246;50.826;4.712;2023-08-17T10:50:35;7.05;;;5.13;;
12363;SDS011;6246;50.826;4.712;2023-08-17T10:53:11;7.50;;;4.75;;
12363;SDS011;6246;50.826;4.712;2023-08-17T10:55:41;6.80;;;5.05;;
12363;SDS011;6246;50.826;4.712;2023-08-17T10:58:07;6.47;;;5.15;;
12363;SDS011;6246;50.826;4.712;2023-08-17T11:00:34;10.55;;;5.70;;
12363;SDS011;6246;50.826;4.712;2023-08-17T11:03:03;7.00;;;5.13;;
12363;SDS011;6246;50.826;4.712;2023-08-17T11:05:47;6.97;;;5.10;;
12363;SDS011;6246;50.826;4.712;2023-08-17T11:08:27;8.68;;;5.03;;
12363;SDS011;6246;50.826;4.712;2023-08-17T11:11:03;6.40;;;4.90;;
12363;SDS011;6246;50.826;4.712;2023-08-17T11:13:30;5.50;;;4.63;;
12363;SDS011;6246;50.826;4.712;2023-08-17T11:15:57;6.28;;;4.57;;
12363;SDS011;6246;50.826;4.712;2023-08-17T11:18:23;7.03;;;5.07;;
12363;SDS011;6246;50.826;4.712;2023-08-17T11:20:49;6.75;;;4.80;;
12363;SDS011;6246;50.826;4.712;2023-08-17T11:23:16;6.00;;;5.00;;
12363;SDS011;6246;50.826;4.712;2023-08-17T11:25:42;6.82;;;5.05;;
12363;SDS011;6246;50.826;4.712;2023-08-17T11:28:08;6.93;;;5.13;;
12363;SDS011;6246;50.826;4.712;2023-08-17T11:30:34;5.70;;;4.88;;
12363;SDS011;6246;50.826;4.712;2023-08-17T11:33:03;5.63;;;4.82;;
12363;SDS011;6246;50.826;4.712;2023-08-17T11:35:30;6.18;;;4.78;;
12363;SDS011;6246;50.826;4.712;2023-08-17T11:37:56;9.40;;;5.40;;
12363;SDS011;6246;50.826;4.712;2023-08-17T11:40:22;6.97;;;4.97;;
12363;SDS011;6246;50.826;4.712;2023-08-17T11:42:48;8.00;;;4.90;;
12363;SDS011;6246;50.826;4.712;2023-08-17T11:45:14;6.85;;;4.95;;
12363;SDS011;6246;50.826;4.712;2023-08-17T11:47:41;6.72;;;4.68;;
12363;SDS011;6246;50.826;4.712;2023-08-17T11:50:08;8.32;;;4.68;;
12363;SDS011;6246;50.826;4.712;2023-08-17T11:52:35;5.10;;;4.45;;
12363;SDS011;6246;50.826;4.712;2023-08-17T11:55:07;5.03;;;4.53;;
12363;SDS011;6246;50.826;4.712;2023-08-17T11:57:34;5.47;;;4.63;;
12363;SDS011;6246;50.826;4.712;2023-08-17T12:00:01;5.05;;;4.55;;
12363;SDS011;6246;50.826;4.712;2023-08-17T12:02:28;6.88;;;4.72;;
12363;SDS011;6246;50.826;4.712;2023-08-17T12:04:56;7.28;;;5.25;;
12363;SDS011;6246;50.826;4.712;2023-08-17T12:07:25;5.88;;;4.50;;
12363;SDS011;6246;50.826;4.712;2023-08-17T12:09:51;9.38;;;4.82;;
12363;SDS011;6246;50.826;4.712;2023-08-17T12:12:19;17.63;;;6.10;;
12363;SDS011;6246;50.826;4.712;2023-08-17T12:14:47;13.25;;;6.05;;
12363;SDS011;6246;50.826;4.712;2023-08-17T12:17:19;7.40;;;5.70;;
12363;SDS011;6246;50.826;4.712;2023-08-17T12:19:48;10.40;;;6.15;;
12363;SDS011;6246;50.826;4.712;2023-08-17T12:22:14;8.80;;;6.00;;
12363;SDS011;6246;50.826;4.712;2023-08-17T12:24:40;11.30;;;6.43;;
12363;SDS011;6246;50.826;4.712;2023-08-17T12:27:07;11.77;;;6.32;;
12363;SDS011;6246;50.826;4.712;2023-08-17T12:29:33;11.48;;;5.68;;
12363;SDS011;6246;50.826;4.712;2023-08-17T12:32:00;14.02;;;6.60;;
12363;SDS011;6246;50.826;4.712;2023-08-17T12:34:27;9.48;;;6.05;;
12363;SDS011;6246;50.826;4.712;2023-08-17T12:36:53;8.05;;;5.28;;
12363;SDS011;6246;50.826;4.712;2023-08-17T12:39:19;6.50;;;5.28;;
12363;SDS011;6246;50.826;4.712;2023-08-17T12:41:45;8.23;;;5.35;;
12363;SDS011;6246;50.826;4.712;2023-08-17T12:44:11;8.80;;;5.57;;
12363;SDS011;6246;50.826;4.712;2023-08-17T12:46:38;9.02;;;5.60;;
12363;SDS011;6246;50.826;4.712;2023-08-17T12:49:04;9.48;;;5.65;;
12363;SDS011;6246;50.826;4.712;2023-08-17T12:51:30;10.38;;;5.22;;
12363;SDS011;6246;50.826;4.712;2023-08-17T12:53:56;11.57;;;5.28;;
12363;SDS011;6246;50.826;4.712;2023-08-17T12:56:22;10.23;;;5.43;;
12363;SDS011;6246;50.826;4.712;2023-08-17T12:58:48;6.95;;;4.68;;
12363;SDS011;6246;50.826;4.712;2023-08-17T13:01:14;8.57;;;4.97;;
12363;SDS011;6246;50.826;4.712;2023-08-17T13:03:40;8.77;;;4.97;;
12363;SDS011;6246;50.826;4.712;2023-08-17T13:06:07;6.90;;;5.03;;
12363;SDS011;6246;50.826;4.712;2023-08-17T13:08:33;7.93;;;5.25;;
12363;SDS011;6246;50.826;4.712;2023-08-17T13:10:59;8.55;;;4.75;;
12363;SDS011;6246;50.826;4.712;2023-08-17T13:13:25;9.80;;;4.95;;
12363;SDS011;6246;50.826;4.712;2023-08-17T13:15:52;6.63;;;4.88;;
12363;SDS011;6246;50.826;4.712;2023-08-17T13:18:18;7.05;;;4.63;;
12363;SDS011;6246;50.826;4.712;2023-08-17T13:20:44;6.25;;;5.03;;
12363;SDS011;6246;50.826;4.712;2023-08-17T13:23:10;7.43;;;4.40;;
12363;SDS011;6246;50.826;4.712;2023-08-17T13:25:36;5.78;;;4.63;;
12363;SDS011;6246;50.826;4.712;2023-08-17T13:28:02;5.03;;;4.50;;
12363;SDS011;6246;50.826;4.712;2023-08-17T13:30:28;6.70;;;4.82;;
12363;SDS011;6246;50.826;4.712;2023-08-17T13:32:55;5.30;;;4.50;;
12363;SDS011;6246;50.826;4.712;2023-08-17T13:35:21;7.05;;;4.82;;
12363;SDS011;6246;50.826;4.712;2023-08-17T13:37:51;11.20;;;5.00;;
12363;SDS011;6246;50.826;4.712;2023-08-17T13:40:18;6.30;;;4.90;;
12363;SDS011;6246;50.826;4.712;2023-08-17T13:42:44;5.28;;;4.15;;
12363;SDS011;6246;50.826;4.712;2023-08-17T13:45:10;5.03;;;4.55;;
12363;SDS011;6246;50.826;4.712;2023-08-17T13:47:36;5.78;;;5.10;;
12363;SDS011;6246;50.826;4.712;2023-08-17T13:50:02;5.45;;;4.45;;
12363;SDS011;6246;50.826;4.712;2023-08-17T13:52:28;5.22;;;4.57;;
12363;SDS011;6246;50.826;4.712;2023-08-17T13:54:54;5.40;;;4.78;;
12363;SDS011;6246;50.826;4.712;2023-08-17T13:57:20;5.28;;;4.70;;
12363;SDS011;6246;50.826;4.712;2023-08-17T13:59:46;5.35;;;4.65;;
12363;SDS011;6246;50.826;4.712;2023-08-17T14:02:12;6.43;;;4.80;;
12363;SDS011;6246;50.826;4.712;2023-08-17T14:04:38;6.63;;;4.25;;
12363;SDS011;6246;50.826;4.712;2023-08-17T14:07:04;6.50;;;4.25;;
12363;SDS011;6246;50.826;4.712;2023-08-17T14:09:30;4.55;;;4.15;;
12363;SDS011;6246;50.826;4.712;2023-08-17T14:11:57;5.68;;;4.32;;
12363;SDS011;6246;50.826;4.712;2023-08-17T14:14:23;5.10;;;4.60;;
12363;SDS011;6246;50.826;4.712;2023-08-17T14:16:49;4.63;;;4.28;;
12363;SDS011;6246;50.826;4.712;2023-08-17T14:19:15;5.00;;;4.10;;
12363;SDS011;6246;50.826;4.712;2023-08-17T14:21:40;4.95;;;3.97;;
12363;SDS011;6246;50.826;4.712;2023-08-17T14:24:06;4.95;;;4.40;;
12363;SDS011;6246;50.826;4.712;2023-08-17T14:26:33;4.90;;;4.43;;
12363;SDS011;6246;50.826;4.712;2023-08-17T14:28:59;4.75;;;4.32;;
12363;SDS011;6246;50.826;4.712;2023-08-17T14:31:25;4.95;;;4.47;;
12363;SDS011;6246;50.826;4.712;2023-08-17T14:33:51;5.80;;;4.80;;
12363;SDS011;6246;50.826;4.712;2023-08-17T14:36:17;4.93;;;4.07;;
12363;SDS011;6246;50.826;4.712;2023-08-17T14:38:43;4.55;;;4.10;;
12363;SDS011;6246;50.826;4.712;2023-08-17T14:41:09;4.57;;;4.05;;
12363;SDS011;6246;50.826;4.712;2023-08-17T14:43:35;4.90;;;4.35;;
12363;SDS011;6246;50.826;4.712;2023-08-17T14:46:01;6.07;;;4.60;;
12363;SDS011;6246;50.826;4.712;2023-08-17T14:48:27;5.05;;;4.55;;
12363;SDS011;6246;50.826;4.712;2023-08-17T14:50:53;4.70;;;4.30;;
12363;SDS011;6246;50.826;4.712;2023-08-17T14:53:19;4.75;;;4.40;;
12363;SDS011;6246;50.826;4.712;2023-08-17T14:55:45;4.43;;;4.13;;
12363;SDS011;6246;50.826;4.712;2023-08-17T14:58:11;5.80;;;4.75;;
12363;SDS011;6246;50.826;4.712;2023-08-17T15:00:38;5.05;;;4.55;;
12363;SDS011;6246;50.826;4.712;2023-08-17T15:03:04;4.90;;;4.10;;
12363;SDS011;6246;50.826;4.712;2023-08-17T15:05:30;4.93;;;4.35;;